sensor_id;sensor_type;location;lat;lon;timestamp;P1;durP1;ratioP1;P2;durP2;ratioP2
39020;SDS011;25188;51.958;5.842;2023-02-15T00:01:24;40.00;;;23.17;;
39020;SDS011;25188;51.958;5.842;2023-02-15T00:03:50;43.87;;;23.63;;
39020;SDS011;25188;51.958;5.842;2023-02-15T00:06:16;42.27;;;22.43;;
39020;SDS011;25188;51.958;5.842;2023-02-15T00:08:42;39.00;;;22.90;;
39020;SDS011;25188;51.958;5.842;2023-02-15T00:11:09;40.30;;;22.13;;
39020;SDS011;25188;51.958;5.842;2023-02-15T00:13:36;37.37;;;21.13;;
39020;SDS011;25188;51.958;5.842;2023-02-15T00:16:07;34.47;;;20.93;;
39020;SDS011;25188;51.958;5.842;2023-02-15T00:18:37;34.78;;;20.65;;
39020;SDS011;25188;51.958;5.842;2023-02-15T00:21:09;36.67;;;21.53;;
39020;SDS011;25188;51.958;5.842;2023-02-15T00:23:35;39.57;;;22.17;;
39020;SDS011;25188;51.958;5.842;2023-02-15T00:26:10;35.43;;;21.07;;
39020;SDS011;25188;51.958;5.842;2023-02-15T00:28:37;36.77;;;20.77;;
39020;SDS011;25188;51.958;5.842;2023-02-15T00:33:33;34.40;;;20.13;;
39020;SDS011;25188;51.958;5.842;2023-02-15T00:35:59;37.03;;;20.93;;
39020;SDS011;25188;51.958;5.842;2023-02-15T00:38:29;40.50;;;21.77;;
39020;SDS011;25188;51.958;5.842;2023-02-15T00:40:56;40.80;;;20.73;;
39020;SDS011;25188;51.958;5.842;2023-02-15T00:43:24;39.67;;;22.03;;
39020;SDS011;25188;51.958;5.842;2023-02-15T00:45:50;35.77;;;20.87;;
39020;SDS011;25188;51.958;5.842;2023-02-15T00:48:16;37.67;;;20.57;;
39020;SDS011;25188;51.958;5.842;2023-02-15T00:50:46;36.63;;;21.17;;
39020;SDS011;25188;51.958;5.842;2023-02-15T00:53:16;36.47;;;20.27;;
39020;SDS011;25188;51.958;5.842;2023-02-15T00:55:42;41.30;;;21.70;;
39020;SDS011;25188;51.958;5.842;2023-02-15T00:58:08;38.83;;;21.70;;
39020;SDS011;25188;51.958;5.842;2023-02-15T01:00:35;37.57;;;20.43;;
39020;SDS011;25188;51.958;5.842;2023-02-15T01:03:01;42.33;;;21.60;;
39020;SDS011;25188;51.958;5.842;2023-02-15T01:05:27;39.63;;;22.17;;
39020;SDS011;25188;51.958;5.842;2023-02-15T01:07:54;39.47;;;21.17;;
39020;SDS011;25188;51.958;5.842;2023-02-15T01:10:20;42.13;;;22.33;;
39020;SDS011;25188;51.958;5.842;2023-02-15T01:13:07;41.60;;;22.93;;
39020;SDS011;25188;51.958;5.842;2023-02-15T01:15:34;38.70;;;21.70;;
39020;SDS011;25188;51.958;5.842;2023-02-15T01:18:00;41.77;;;22.60;;
39020;SDS011;25188;51.958;5.842;2023-02-15T01:20:26;39.93;;;22.00;;
39020;SDS011;25188;51.958;5.842;2023-02-15T01:22:53;36.03;;;20.87;;
39020;SDS011;25188;51.958;5.842;2023-02-15T01:25:21;40.67;;;21.90;;
39020;SDS011;25188;51.958;5.842;2023-02-15T01:27:51;40.10;;;22.50;;
39020;SDS011;25188;51.958;5.842;2023-02-15T01:30:17;41.20;;;22.73;;
39020;SDS011;25188;51.958;5.842;2023-02-15T01:32:43;45.73;;;23.37;;
39020;SDS011;25188;51.958;5.842;2023-02-15T01:35:09;39.50;;;22.37;;
39020;SDS011;25188;51.958;5.842;2023-02-15T01:37:35;43.50;;;22.70;;
39020;SDS011;25188;51.958;5.842;2023-02-15T01:40:05;39.33;;;22.80;;
39020;SDS011;25188;51.958;5.842;2023-02-15T01:42:33;41.73;;;21.87;;
39020;SDS011;25188;51.958;5.842;2023-02-15T01:45:00;43.30;;;22.70;;
39020;SDS011;25188;51.958;5.842;2023-02-15T01:47:44;42.33;;;22.00;;
39020;SDS011;25188;51.958;5.842;2023-02-15T01:50:17;39.87;;;22.43;;
39020;SDS011;25188;51.958;5.842;2023-02-15T01:53:25;42.00;;;21.93;;
39020;SDS011;25188;51.958;5.842;2023-02-15T01:56:03;36.65;;;20.98;;
39020;SDS011;25188;51.958;5.842;2023-02-15T01:58:51;38.37;;;19.73;;
39020;SDS011;25188;51.958;5.842;2023-02-15T02:01:20;38.17;;;20.30;;
39020;SDS011;25188;51.958;5.842;2023-02-15T02:06:18;37.37;;;20.10;;
39020;SDS011;25188;51.958;5.842;2023-02-15T02:08:45;38.60;;;21.07;;
39020;SDS011;25188;51.958;5.842;2023-02-15T02:11:13;37.47;;;19.53;;
39020;SDS011;25188;51.958;5.842;2023-02-15T02:13:40;37.17;;;20.03;;
39020;SDS011;25188;51.958;5.842;2023-02-15T02:16:10;38.73;;;21.63;;
39020;SDS011;25188;51.958;5.842;2023-02-15T02:18:49;36.53;;;18.97;;
39020;SDS011;25188;51.958;5.842;2023-02-15T02:24:36;33.20;;;18.70;;
39020;SDS011;25188;51.958;5.842;2023-02-15T02:44:04;36.63;;;19.10;;
39020;SDS011;25188;51.958;5.842;2023-02-15T02:49:36;25.33;;;13.60;;
39020;SDS011;25188;51.958;5.842;2023-02-15T02:52:05;35.77;;;19.23;;
39020;SDS011;25188;51.958;5.842;2023-02-15T02:54:51;33.87;;;18.63;;
39020;SDS011;25188;51.958;5.842;2023-02-15T02:57:17;33.30;;;18.33;;
39020;SDS011;25188;51.958;5.842;2023-02-15T02:59:45;36.10;;;20.23;;
39020;SDS011;25188;51.958;5.842;2023-02-15T03:02:13;43.07;;;21.03;;
39020;SDS011;25188;51.958;5.842;2023-02-15T03:04:45;37.80;;;19.87;;
39020;SDS011;25188;51.958;5.842;2023-02-15T03:07:18;39.83;;;20.50;;
39020;SDS011;25188;51.958;5.842;2023-02-15T03:09:54;40.33;;;21.83;;
39020;SDS011;25188;51.958;5.842;2023-02-15T03:12:30;36.23;;;19.23;;
39020;SDS011;25188;51.958;5.842;2023-02-15T03:15:03;38.37;;;19.97;;
39020;SDS011;25188;51.958;5.842;2023-02-15T03:17:32;29.42;;;14.23;;
39020;SDS011;25188;51.958;5.842;2023-02-15T03:20:07;34.57;;;18.37;;
39020;SDS011;25188;51.958;5.842;2023-02-15T03:22:39;34.97;;;18.77;;
39020;SDS011;25188;51.958;5.842;2023-02-15T03:30:15;31.67;;;17.73;;
39020;SDS011;25188;51.958;5.842;2023-02-15T03:32:43;38.20;;;20.87;;
39020;SDS011;25188;51.958;5.842;2023-02-15T03:35:11;35.90;;;19.63;;
39020;SDS011;25188;51.958;5.842;2023-02-15T03:37:58;34.80;;;18.83;;
39020;SDS011;25188;51.958;5.842;2023-02-15T03:40:28;31.30;;;18.20;;
39020;SDS011;25188;51.958;5.842;2023-02-15T03:43:19;34.43;;;18.30;;
39020;SDS011;25188;51.958;5.842;2023-02-15T03:46:51;33.73;;;18.27;;
39020;SDS011;25188;51.958;5.842;2023-02-15T03:49:11;34.07;;;18.40;;
39020;SDS011;25188;51.958;5.842;2023-02-15T03:51:44;36.90;;;19.00;;
39020;SDS011;25188;51.958;5.842;2023-02-15T03:54:14;37.33;;;19.37;;
39020;SDS011;25188;51.958;5.842;2023-02-15T03:57:02;35.20;;;17.97;;
39020;SDS011;25188;51.958;5.842;2023-02-15T03:59:47;34.17;;;18.67;;
39020;SDS011;25188;51.958;5.842;2023-02-15T04:02:35;35.33;;;19.07;;
39020;SDS011;25188;51.958;5.842;2023-02-15T04:05:07;36.10;;;19.70;;
39020;SDS011;25188;51.958;5.842;2023-02-15T04:07:33;37.60;;;19.67;;
39020;SDS011;25188;51.958;5.842;2023-02-15T04:09:59;36.87;;;20.23;;
39020;SDS011;25188;51.958;5.842;2023-02-15T04:12:43;40.10;;;19.02;;
39020;SDS011;25188;51.958;5.842;2023-02-15T04:15:12;41.97;;;19.70;;
39020;SDS011;25188;51.958;5.842;2023-02-15T04:17:56;36.67;;;17.83;;
39020;SDS011;25188;51.958;5.842;2023-02-15T04:20:22;34.47;;;19.30;;
39020;SDS011;25188;51.958;5.842;2023-02-15T04:23:07;31.98;;;18.30;;
39020;SDS011;25188;51.958;5.842;2023-02-15T04:25:51;36.92;;;19.50;;
39020;SDS011;25188;51.958;5.842;2023-02-15T04:28:17;36.07;;;19.30;;
39020;SDS011;25188;51.958;5.842;2023-02-15T04:30:42;31.50;;;17.23;;
39020;SDS011;25188;51.958;5.842;2023-02-15T04:33:08;35.57;;;19.07;;
39020;SDS011;25188;51.958;5.842;2023-02-15T04:35:33;32.23;;;18.00;;
39020;SDS011;25188;51.958;5.842;2023-02-15T04:37:59;36.47;;;20.43;;
39020;SDS011;25188;51.958;5.842;2023-02-15T04:40:25;37.40;;;19.70;;
39020;SDS011;25188;51.958;5.842;2023-02-15T04:42:50;36.03;;;20.03;;
39020;SDS011;25188;51.958;5.842;2023-02-15T04:45:16;35.67;;;18.80;;
39020;SDS011;25188;51.958;5.842;2023-02-15T04:47:42;34.10;;;19.20;;
39020;SDS011;25188;51.958;5.842;2023-02-15T04:50:08;31.90;;;17.50;;
39020;SDS011;25188;51.958;5.842;2023-02-15T04:52:35;35.30;;;18.03;;
39020;SDS011;25188;51.958;5.842;2023-02-15T04:55:01;32.20;;;18.23;;
39020;SDS011;25188;51.958;5.842;2023-02-15T04:57:26;38.40;;;19.77;;
39020;SDS011;25188;51.958;5.842;2023-02-15T04:59:52;36.80;;;19.00;;
39020;SDS011;25188;51.958;5.842;2023-02-15T05:02:18;35.57;;;19.40;;
39020;SDS011;25188;51.958;5.842;2023-02-15T05:04:43;35.87;;;19.53;;
39020;SDS011;25188;51.958;5.842;2023-02-15T05:07:09;33.57;;;18.23;;
39020;SDS011;25188;51.958;5.842;2023-02-15T05:09:35;31.83;;;18.27;;
39020;SDS011;25188;51.958;5.842;2023-02-15T05:12:00;37.37;;;19.60;;
39020;SDS011;25188;51.958;5.842;2023-02-15T05:14:26;33.53;;;18.70;;
39020;SDS011;25188;51.958;5.842;2023-02-15T05:16:52;34.23;;;18.53;;
39020;SDS011;25188;51.958;5.842;2023-02-15T05:19:19;36.57;;;19.13;;
39020;SDS011;25188;51.958;5.842;2023-02-15T05:21:44;32.10;;;18.47;;
39020;SDS011;25188;51.958;5.842;2023-02-15T05:24:10;40.40;;;19.10;;
39020;SDS011;25188;51.958;5.842;2023-02-15T05:26:54;43.23;;;20.33;;
39020;SDS011;25188;51.958;5.842;2023-02-15T05:29:38;36.83;;;18.58;;
39020;SDS011;25188;51.958;5.842;2023-02-15T05:32:04;34.23;;;17.97;;
39020;SDS011;25188;51.958;5.842;2023-02-15T05:34:30;35.90;;;19.50;;
39020;SDS011;25188;51.958;5.842;2023-02-15T05:36:55;34.23;;;19.00;;
39020;SDS011;25188;51.958;5.842;2023-02-15T05:39:21;35.00;;;17.67;;
39020;SDS011;25188;51.958;5.842;2023-02-15T05:41:47;40.27;;;18.87;;
39020;SDS011;25188;51.958;5.842;2023-02-15T05:44:12;35.30;;;18.47;;
39020;SDS011;25188;51.958;5.842;2023-02-15T05:46:38;39.43;;;19.90;;
39020;SDS011;25188;51.958;5.842;2023-02-15T05:49:03;39.33;;;19.90;;
39020;SDS011;25188;51.958;5.842;2023-02-15T05:51:29;36.47;;;19.60;;
39020;SDS011;25188;51.958;5.842;2023-02-15T05:53:55;40.73;;;19.33;;
39020;SDS011;25188;51.958;5.842;2023-02-15T05:56:20;38.03;;;19.93;;
39020;SDS011;25188;51.958;5.842;2023-02-15T05:58:46;38.23;;;20.17;;
39020;SDS011;25188;51.958;5.842;2023-02-15T06:01:16;40.10;;;19.33;;
39020;SDS011;25188;51.958;5.842;2023-02-15T06:03:44;36.70;;;18.43;;
39020;SDS011;25188;51.958;5.842;2023-02-15T06:06:10;35.57;;;18.17;;
39020;SDS011;25188;51.958;5.842;2023-02-15T06:08:36;37.13;;;18.07;;
39020;SDS011;25188;51.958;5.842;2023-02-15T06:11:03;37.47;;;19.03;;
39020;SDS011;25188;51.958;5.842;2023-02-15T06:13:29;37.83;;;18.77;;
39020;SDS011;25188;51.958;5.842;2023-02-15T06:15:55;37.13;;;18.70;;
39020;SDS011;25188;51.958;5.842;2023-02-15T06:18:20;37.53;;;18.40;;
39020;SDS011;25188;51.958;5.842;2023-02-15T06:20:46;39.90;;;19.03;;
39020;SDS011;25188;51.958;5.842;2023-02-15T06:23:12;36.03;;;20.37;;
39020;SDS011;25188;51.958;5.842;2023-02-15T06:25:38;36.93;;;18.80;;
39020;SDS011;25188;51.958;5.842;2023-02-15T06:28:04;36.47;;;19.40;;
39020;SDS011;25188;51.958;5.842;2023-02-15T06:30:30;39.90;;;19.80;;
39020;SDS011;25188;51.958;5.842;2023-02-15T06:32:56;39.47;;;19.90;;
39020;SDS011;25188;51.958;5.842;2023-02-15T06:35:21;36.20;;;18.43;;
39020;SDS011;25188;51.958;5.842;2023-02-15T06:37:47;38.37;;;19.97;;
39020;SDS011;25188;51.958;5.842;2023-02-15T06:40:13;38.73;;;19.60;;
39020;SDS011;25188;51.958;5.842;2023-02-15T06:42:39;34.40;;;19.67;;
39020;SDS011;25188;51.958;5.842;2023-02-15T06:45:06;36.57;;;19.50;;
39020;SDS011;25188;51.958;5.842;2023-02-15T06:47:32;35.93;;;19.13;;
39020;SDS011;25188;51.958;5.842;2023-02-15T06:49:58;35.63;;;18.47;;
39020;SDS011;25188;51.958;5.842;2023-02-15T06:52:24;39.47;;;18.87;;
39020;SDS011;25188;51.958;5.842;2023-02-15T06:54:50;39.40;;;20.17;;
39020;SDS011;25188;51.958;5.842;2023-02-15T06:57:15;44.70;;;20.27;;
39020;SDS011;25188;51.958;5.842;2023-02-15T06:59:41;36.50;;;18.83;;
39020;SDS011;25188;51.958;5.842;2023-02-15T07:02:08;36.47;;;19.77;;
39020;SDS011;25188;51.958;5.842;2023-02-15T07:04:34;37.67;;;19.83;;
39020;SDS011;25188;51.958;5.842;2023-02-15T07:06:59;39.20;;;18.83;;
39020;SDS011;25188;51.958;5.842;2023-02-15T07:09:25;44.23;;;20.53;;
39020;SDS011;25188;51.958;5.842;2023-02-15T07:11:51;38.43;;;20.43;;
39020;SDS011;25188;51.958;5.842;2023-02-15T07:14:35;36.92;;;20.45;;
39020;SDS011;25188;51.958;5.842;2023-02-15T07:17:00;41.67;;;21.07;;
39020;SDS011;25188;51.958;5.842;2023-02-15T07:19:26;40.30;;;20.73;;
39020;SDS011;25188;51.958;5.842;2023-02-15T07:21:52;46.23;;;20.10;;
39020;SDS011;25188;51.958;5.842;2023-02-15T07:24:17;37.90;;;19.57;;
39020;SDS011;25188;51.958;5.842;2023-02-15T07:26:43;46.43;;;22.07;;
39020;SDS011;25188;51.958;5.842;2023-02-15T07:29:08;39.27;;;21.23;;
39020;SDS011;25188;51.958;5.842;2023-02-15T07:31:34;38.37;;;20.33;;
39020;SDS011;25188;51.958;5.842;2023-02-15T07:34:00;40.10;;;20.13;;
39020;SDS011;25188;51.958;5.842;2023-02-15T07:36:25;38.73;;;20.33;;
39020;SDS011;25188;51.958;5.842;2023-02-15T07:38:51;37.10;;;19.03;;
39020;SDS011;25188;51.958;5.842;2023-02-15T07:41:17;43.10;;;22.20;;
39020;SDS011;25188;51.958;5.842;2023-02-15T07:43:44;39.63;;;21.77;;
39020;SDS011;25188;51.958;5.842;2023-02-15T07:46:11;41.00;;;21.43;;
39020;SDS011;25188;51.958;5.842;2023-02-15T07:48:40;39.40;;;21.37;;
39020;SDS011;25188;51.958;5.842;2023-02-15T07:51:06;43.27;;;22.73;;
39020;SDS011;25188;51.958;5.842;2023-02-15T07:53:33;38.90;;;20.50;;
39020;SDS011;25188;51.958;5.842;2023-02-15T07:56:04;35.40;;;20.47;;
39020;SDS011;25188;51.958;5.842;2023-02-15T07:58:32;43.67;;;20.70;;
39020;SDS011;25188;51.958;5.842;2023-02-15T08:01:17;41.90;;;20.83;;
39020;SDS011;25188;51.958;5.842;2023-02-15T08:03:43;38.80;;;20.43;;
39020;SDS011;25188;51.958;5.842;2023-02-15T08:06:09;41.30;;;22.47;;
39020;SDS011;25188;51.958;5.842;2023-02-15T08:08:36;43.50;;;21.60;;
39020;SDS011;25188;51.958;5.842;2023-02-15T08:13:57;40.90;;;22.53;;
39020;SDS011;25188;51.958;5.842;2023-02-15T08:19:11;39.10;;;21.37;;
39020;SDS011;25188;51.958;5.842;2023-02-15T08:21:42;38.73;;;20.67;;
39020;SDS011;25188;51.958;5.842;2023-02-15T08:24:10;40.40;;;22.57;;
39020;SDS011;25188;51.958;5.842;2023-02-15T08:26:38;38.80;;;21.70;;
39020;SDS011;25188;51.958;5.842;2023-02-15T08:29:04;39.40;;;22.33;;
39020;SDS011;25188;51.958;5.842;2023-02-15T08:31:32;43.17;;;23.00;;
39020;SDS011;25188;51.958;5.842;2023-02-15T08:33:58;39.57;;;22.03;;
39020;SDS011;25188;51.958;5.842;2023-02-15T08:36:25;40.20;;;22.00;;
39020;SDS011;25188;51.958;5.842;2023-02-15T08:38:53;44.80;;;23.87;;
39020;SDS011;25188;51.958;5.842;2023-02-15T08:41:20;42.17;;;22.40;;
39020;SDS011;25188;51.958;5.842;2023-02-15T08:43:49;37.07;;;21.70;;
39020;SDS011;25188;51.958;5.842;2023-02-15T08:46:17;44.27;;;22.30;;
39020;SDS011;25188;51.958;5.842;2023-02-15T08:48:43;44.87;;;22.70;;
39020;SDS011;25188;51.958;5.842;2023-02-15T08:51:16;38.97;;;22.50;;
39020;SDS011;25188;51.958;5.842;2023-02-15T08:53:44;45.80;;;24.27;;
39020;SDS011;25188;51.958;5.842;2023-02-15T08:56:15;43.97;;;22.43;;
39020;SDS011;25188;51.958;5.842;2023-02-15T08:58:42;40.80;;;22.03;;
39020;SDS011;25188;51.958;5.842;2023-02-15T09:01:08;38.27;;;21.47;;
39020;SDS011;25188;51.958;5.842;2023-02-15T09:03:43;41.63;;;22.93;;
39020;SDS011;25188;51.958;5.842;2023-02-15T09:06:10;44.27;;;22.70;;
39020;SDS011;25188;51.958;5.842;2023-02-15T09:08:36;39.97;;;23.43;;
39020;SDS011;25188;51.958;5.842;2023-02-15T09:13:35;44.17;;;23.33;;
39020;SDS011;25188;51.958;5.842;2023-02-15T09:16:03;38.43;;;21.90;;
39020;SDS011;25188;51.958;5.842;2023-02-15T09:18:31;38.87;;;21.67;;
39020;SDS011;25188;51.958;5.842;2023-02-15T09:21:07;41.33;;;24.23;;
39020;SDS011;25188;51.958;5.842;2023-02-15T09:23:40;38.80;;;23.07;;
39020;SDS011;25188;51.958;5.842;2023-02-15T09:26:08;44.57;;;24.20;;
39020;SDS011;25188;51.958;5.842;2023-02-15T09:28:35;41.97;;;23.33;;
39020;SDS011;25188;51.958;5.842;2023-02-15T09:33:36;36.57;;;22.20;;
39020;SDS011;25188;51.958;5.842;2023-02-15T09:36:03;40.27;;;23.50;;
39020;SDS011;25188;51.958;5.842;2023-02-15T09:38:29;36.83;;;22.20;;
39020;SDS011;25188;51.958;5.842;2023-02-15T10:15:36;29.53;;;18.83;;
39020;SDS011;25188;51.958;5.842;2023-02-15T10:21:32;30.67;;;17.77;;
39020;SDS011;25188;51.958;5.842;2023-02-15T10:31:24;23.98;;;15.45;;
39020;SDS011;25188;51.958;5.842;2023-02-15T10:39:45;20.38;;;12.23;;
39020;SDS011;25188;51.958;5.842;2023-02-15T10:48:07;23.05;;;15.02;;
39020;SDS011;25188;51.958;5.842;2023-02-15T10:50:51;19.08;;;13.05;;
39020;SDS011;25188;51.958;5.842;2023-02-15T10:53:26;21.03;;;14.40;;
39020;SDS011;25188;51.958;5.842;2023-02-15T10:56:17;21.65;;;13.70;;
39020;SDS011;25188;51.958;5.842;2023-02-15T10:59:19;19.77;;;13.60;;
39020;SDS011;25188;51.958;5.842;2023-02-15T11:04:59;19.88;;;13.27;;
39020;SDS011;25188;51.958;5.842;2023-02-15T11:07:40;18.85;;;13.05;;
39020;SDS011;25188;51.958;5.842;2023-02-15T11:12:43;19.33;;;14.60;;
39020;SDS011;25188;51.958;5.842;2023-02-15T11:15:17;27.02;;;15.07;;
39020;SDS011;25188;51.958;5.842;2023-02-15T11:17:46;21.30;;;15.43;;
39020;SDS011;25188;51.958;5.842;2023-02-15T11:22:47;18.45;;;13.68;;
39020;SDS011;25188;51.958;5.842;2023-02-15T11:25:19;18.10;;;13.48;;
39020;SDS011;25188;51.958;5.842;2023-02-15T11:27:57;20.50;;;13.75;;
39020;SDS011;25188;51.958;5.842;2023-02-15T11:30:39;23.60;;;16.25;;
39020;SDS011;25188;51.958;5.842;2023-02-15T11:33:17;21.67;;;14.30;;
39020;SDS011;25188;51.958;5.842;2023-02-15T11:38:20;18.77;;;14.05;;
39020;SDS011;25188;51.958;5.842;2023-02-15T11:41:10;20.73;;;14.40;;
39020;SDS011;25188;51.958;5.842;2023-02-15T11:43:40;19.38;;;14.98;;
39020;SDS011;25188;51.958;5.842;2023-02-15T11:46:18;20.30;;;15.60;;
39020;SDS011;25188;51.958;5.842;2023-02-15T11:48:45;20.45;;;15.02;;
39020;SDS011;25188;51.958;5.842;2023-02-15T11:51:13;21.58;;;14.73;;
39020;SDS011;25188;51.958;5.842;2023-02-15T11:53:41;18.70;;;14.32;;
39020;SDS011;25188;51.958;5.842;2023-02-15T11:56:18;19.52;;;15.23;;
39020;SDS011;25188;51.958;5.842;2023-02-15T12:07:04;22.27;;;15.98;;
39020;SDS011;25188;51.958;5.842;2023-02-15T12:12:24;22.73;;;15.98;;
39020;SDS011;25188;51.958;5.842;2023-02-15T12:14:55;22.65;;;16.52;;
39020;SDS011;25188;51.958;5.842;2023-02-15T12:17:23;23.90;;;16.25;;
39020;SDS011;25188;51.958;5.842;2023-02-15T12:20:00;23.42;;;17.30;;
39020;SDS011;25188;51.958;5.842;2023-02-15T12:22:33;20.45;;;15.75;;
39020;SDS011;25188;51.958;5.842;2023-02-15T12:25:02;23.92;;;16.85;;
39020;SDS011;25188;51.958;5.842;2023-02-15T12:27:44;20.30;;;14.38;;
39020;SDS011;25188;51.958;5.842;2023-02-15T12:32:57;21.95;;;15.55;;
39020;SDS011;25188;51.958;5.842;2023-02-15T12:35:31;21.23;;;15.68;;
39020;SDS011;25188;51.958;5.842;2023-02-15T12:38:26;21.13;;;15.20;;
39020;SDS011;25188;51.958;5.842;2023-02-15T12:43:33;23.75;;;17.10;;
39020;SDS011;25188;51.958;5.842;2023-02-15T12:46:14;21.70;;;15.15;;
39020;SDS011;25188;51.958;5.842;2023-02-15T12:48:46;21.65;;;16.80;;
39020;SDS011;25188;51.958;5.842;2023-02-15T12:51:13;22.75;;;15.73;;
39020;SDS011;25188;51.958;5.842;2023-02-15T12:53:40;23.10;;;15.70;;
39020;SDS011;25188;51.958;5.842;2023-02-15T12:56:07;21.48;;;16.38;;
39020;SDS011;25188;51.958;5.842;2023-02-15T12:58:34;22.05;;;16.50;;
39020;SDS011;25188;51.958;5.842;2023-02-15T13:03:34;21.52;;;17.00;;
39020;SDS011;25188;51.958;5.842;2023-02-15T13:06:02;18.67;;;15.20;;
39020;SDS011;25188;51.958;5.842;2023-02-15T13:08:33;20.77;;;16.25;;
39020;SDS011;25188;51.958;5.842;2023-02-15T13:11:03;23.83;;;17.58;;
39020;SDS011;25188;51.958;5.842;2023-02-15T13:13:36;23.60;;;17.33;;
39020;SDS011;25188;51.958;5.842;2023-02-15T13:16:15;24.17;;;16.90;;
39020;SDS011;25188;51.958;5.842;2023-02-15T13:18:45;22.38;;;16.73;;
39020;SDS011;25188;51.958;5.842;2023-02-15T13:21:19;23.40;;;16.90;;
39020;SDS011;25188;51.958;5.842;2023-02-15T13:24:02;26.55;;;19.15;;
39020;SDS011;25188;51.958;5.842;2023-02-15T13:26:50;29.65;;;19.83;;
39020;SDS011;25188;51.958;5.842;2023-02-15T13:29:29;26.23;;;18.13;;
39020;SDS011;25188;51.958;5.842;2023-02-15T13:32:04;24.83;;;19.52;;
39020;SDS011;25188;51.958;5.842;2023-02-15T13:34:46;27.73;;;18.92;;
39020;SDS011;25188;51.958;5.842;2023-02-15T13:37:19;27.80;;;19.80;;
39020;SDS011;25188;51.958;5.842;2023-02-15T13:39:50;27.73;;;18.30;;
39020;SDS011;25188;51.958;5.842;2023-02-15T13:45:32;30.20;;;21.75;;
39020;SDS011;25188;51.958;5.842;2023-02-15T13:53:59;32.78;;;22.00;;
39020;SDS011;25188;51.958;5.842;2023-02-15T13:57:16;33.50;;;22.67;;
39020;SDS011;25188;51.958;5.842;2023-02-15T13:59:33;30.95;;;20.65;;
39020;SDS011;25188;51.958;5.842;2023-02-15T14:02:37;29.55;;;21.13;;
39020;SDS011;25188;51.958;5.842;2023-02-15T14:13:22;30.98;;;20.90;;
39020;SDS011;25188;51.958;5.842;2023-02-15T14:24:58;36.20;;;23.33;;
39020;SDS011;25188;51.958;5.842;2023-02-15T14:27:45;33.92;;;21.60;;
39020;SDS011;25188;51.958;5.842;2023-02-15T14:30:32;35.85;;;20.85;;
39020;SDS011;25188;51.958;5.842;2023-02-15T14:33:08;32.78;;;20.40;;
39020;SDS011;25188;51.958;5.842;2023-02-15T14:35:49;30.63;;;20.02;;
39020;SDS011;25188;51.958;5.842;2023-02-15T14:41:13;34.63;;;21.23;;
39020;SDS011;25188;51.958;5.842;2023-02-15T14:44:03;37.85;;;21.67;;
39020;SDS011;25188;51.958;5.842;2023-02-15T14:46:42;30.60;;;19.48;;
39020;SDS011;25188;51.958;5.842;2023-02-15T14:49:27;34.00;;;21.33;;
39020;SDS011;25188;51.958;5.842;2023-02-15T15:05:18;32.55;;;21.48;;
39020;SDS011;25188;51.958;5.842;2023-02-15T15:07:46;33.97;;;22.20;;
39020;SDS011;25188;51.958;5.842;2023-02-15T15:12:41;38.15;;;20.75;;
39020;SDS011;25188;51.958;5.842;2023-02-15T15:26:23;39.42;;;22.33;;
39020;SDS011;25188;51.958;5.842;2023-02-15T15:28:55;36.35;;;21.83;;
39020;SDS011;25188;51.958;5.842;2023-02-15T15:31:42;38.75;;;22.58;;
39020;SDS011;25188;51.958;5.842;2023-02-15T15:37:36;32.88;;;21.17;;
39020;SDS011;25188;51.958;5.842;2023-02-15T15:40:23;35.80;;;21.65;;
39020;SDS011;25188;51.958;5.842;2023-02-15T15:50:59;35.95;;;21.92;;
39020;SDS011;25188;51.958;5.842;2023-02-15T15:53:30;37.65;;;21.58;;
39020;SDS011;25188;51.958;5.842;2023-02-15T15:56:04;38.95;;;21.35;;
39020;SDS011;25188;51.958;5.842;2023-02-15T15:58:35;35.25;;;21.15;;
39020;SDS011;25188;51.958;5.842;2023-02-15T16:01:06;37.38;;;21.80;;
39020;SDS011;25188;51.958;5.842;2023-02-15T16:03:34;35.40;;;21.15;;
39020;SDS011;25188;51.958;5.842;2023-02-15T16:06:00;38.50;;;20.73;;
39020;SDS011;25188;51.958;5.842;2023-02-15T16:08:27;37.88;;;22.40;;
39020;SDS011;25188;51.958;5.842;2023-02-15T16:10:59;39.30;;;22.50;;
39020;SDS011;25188;51.958;5.842;2023-02-15T16:13:33;35.88;;;21.63;;
39020;SDS011;25188;51.958;5.842;2023-02-15T16:15:59;36.35;;;21.83;;
39020;SDS011;25188;51.958;5.842;2023-02-15T16:18:25;38.97;;;21.38;;
39020;SDS011;25188;51.958;5.842;2023-02-15T16:20:53;37.25;;;22.70;;
39020;SDS011;25188;51.958;5.842;2023-02-15T16:29:12;35.97;;;21.20;;
39020;SDS011;25188;51.958;5.842;2023-02-15T16:31:43;39.58;;;21.55;;
39020;SDS011;25188;51.958;5.842;2023-02-15T16:34:21;37.50;;;21.58;;
39020;SDS011;25188;51.958;5.842;2023-02-15T16:36:47;40.53;;;23.65;;
39020;SDS011;25188;51.958;5.842;2023-02-15T16:39:17;39.10;;;22.50;;
39020;SDS011;25188;51.958;5.842;2023-02-15T16:41:44;39.60;;;22.67;;
39020;SDS011;25188;51.958;5.842;2023-02-15T16:44:14;39.10;;;22.95;;
39020;SDS011;25188;51.958;5.842;2023-02-15T16:46:43;40.20;;;22.13;;
39020;SDS011;25188;51.958;5.842;2023-02-15T16:49:17;43.35;;;23.20;;
39020;SDS011;25188;51.958;5.842;2023-02-15T16:51:53;51.95;;;22.88;;
39020;SDS011;25188;51.958;5.842;2023-02-15T16:54:23;37.25;;;21.63;;
39020;SDS011;25188;51.958;5.842;2023-02-15T16:56:50;38.22;;;23.63;;
39020;SDS011;25188;51.958;5.842;2023-02-15T16:59:19;41.35;;;22.55;;
39020;SDS011;25188;51.958;5.842;2023-02-15T17:01:53;40.58;;;24.23;;
39020;SDS011;25188;51.958;5.842;2023-02-15T17:07:04;44.60;;;23.33;;
39020;SDS011;25188;51.958;5.842;2023-02-15T17:09:50;42.40;;;25.45;;
39020;SDS011;25188;51.958;5.842;2023-02-15T17:15:02;39.67;;;22.60;;
39020;SDS011;25188;51.958;5.842;2023-02-15T17:17:27;39.08;;;21.98;;
39020;SDS011;25188;51.958;5.842;2023-02-15T17:19:56;42.50;;;23.88;;
39020;SDS011;25188;51.958;5.842;2023-02-15T17:22:23;43.38;;;24.55;;
39020;SDS011;25188;51.958;5.842;2023-02-15T17:24:57;42.65;;;24.42;;
39020;SDS011;25188;51.958;5.842;2023-02-15T17:27:25;44.33;;;23.77;;
39020;SDS011;25188;51.958;5.842;2023-02-15T17:29:56;41.78;;;24.88;;
39020;SDS011;25188;51.958;5.842;2023-02-15T17:32:25;48.27;;;25.00;;
39020;SDS011;25188;51.958;5.842;2023-02-15T17:35:06;43.75;;;24.23;;
39020;SDS011;25188;51.958;5.842;2023-02-15T17:37:45;42.77;;;24.00;;
39020;SDS011;25188;51.958;5.842;2023-02-15T17:40:29;42.83;;;23.83;;
39020;SDS011;25188;51.958;5.842;2023-02-15T17:42:56;49.30;;;26.00;;
39020;SDS011;25188;51.958;5.842;2023-02-15T17:45:24;44.23;;;24.90;;
39020;SDS011;25188;51.958;5.842;2023-02-15T17:47:51;44.40;;;24.33;;
39020;SDS011;25188;51.958;5.842;2023-02-15T17:50:21;40.57;;;23.53;;
39020;SDS011;25188;51.958;5.842;2023-02-15T17:52:49;39.70;;;22.47;;
39020;SDS011;25188;51.958;5.842;2023-02-15T17:55:17;41.40;;;24.43;;
39020;SDS011;25188;51.958;5.842;2023-02-15T17:58:21;42.27;;;24.00;;
39020;SDS011;25188;51.958;5.842;2023-02-15T18:06:23;35.80;;;21.17;;
39020;SDS011;25188;51.958;5.842;2023-02-15T18:09:09;44.47;;;22.93;;
39020;SDS011;25188;51.958;5.842;2023-02-15T18:11:54;40.43;;;22.33;;
39020;SDS011;25188;51.958;5.842;2023-02-15T18:14:20;41.63;;;22.93;;
39020;SDS011;25188;51.958;5.842;2023-02-15T18:16:45;39.93;;;23.70;;
39020;SDS011;25188;51.958;5.842;2023-02-15T18:19:16;44.57;;;24.50;;